sensor_id;sensor_type;location;lat;lon;timestamp;pressure;altitude;pressure_sealevel;temperature;humidity
12897;BME280;6516;35.028;32.372;2022-12-18T00:01:27;100867.25;;;14.59;100.00
12897;BME280;6516;35.028;32.372;2022-12-18T00:03:57;100867.22;;;14.60;100.00
12897;BME280;6516;35.028;32.372;2022-12-18T00:06:26;100864.69;;;14.56;100.00
12897;BME280;6516;35.028;32.372;2022-12-18T00:08:57;100862.78;;;14.62;100.00
12897;BME280;6516;35.028;32.372;2022-12-18T00:11:27;100865.34;;;14.65;100.00
12897;BME280;6516;35.028;32.372;2022-12-18T00:13:57;100862.88;;;14.58;100.00
12897;BME280;6516;35.028;32.372;2022-12-18T00:16:27;100864.63;;;14.57;100.00
12897;BME280;6516;35.028;32.372;2022-12-18T00:18:59;100864.69;;;14.56;100.00
12897;BME280;6516;35.028;32.372;2022-12-18T00:21:28;100862.84;;;14.59;100.00
12897;BME280;6516;35.028;32.372;2022-12-18T00:23:58;100862.91;;;14.55;100.00
12897;BME280;6516;35.028;32.372;2022-12-18T00:26:28;100854.91;;;14.58;100.00
12897;BME280;6516;35.028;32.372;2022-12-18T00:28:58;100859.38;;;14.56;100.00
12897;BME280;6516;35.028;32.372;2022-12-18T00:31:27;100857.78;;;14.49;100.00
12897;BME280;6516;35.028;32.372;2022-12-18T00:33:58;100864.75;;;14.53;100.00
12897;BME280;6516;35.028;32.372;2022-12-18T00:36:28;100860.38;;;14.50;100.00
12897;BME280;6516;35.028;32.372;2022-12-18T00:38:59;100857.78;;;14.47;100.00
12897;BME280;6516;35.028;32.372;2022-12-18T00:41:28;100862.25;;;14.47;100.00
12897;BME280;6516;35.028;32.372;2022-12-18T00:44:14;100863.81;;;14.55;100.00
12897;BME280;6516;35.028;32.372;2022-12-18T00:46:44;100865.69;;;14.50;100.00
12897;BME280;6516;35.028;32.372;2022-12-18T00:49:13;100862.19;;;14.48;100.00
12897;BME280;6516;35.028;32.372;2022-12-18T00:51:41;100857.78;;;14.49;100.00
12897;BME280;6516;35.028;32.372;2022-12-18T00:54:11;100858.50;;;14.55;100.00
12897;BME280;6516;35.028;32.372;2022-12-18T00:56:39;100850.56;;;14.55;100.00
12897;BME280;6516;35.028;32.372;2022-12-18T00:59:07;100855.97;;;14.51;100.00
12897;BME280;6516;35.028;32.372;2022-12-18T01:01:35;100855.13;;;14.49;100.00
12897;BME280;6516;35.028;32.372;2022-12-18T01:04:04;100855.13;;;14.49;100.00
12897;BME280;6516;35.028;32.372;2022-12-18T01:06:32;100846.41;;;14.44;100.00
12897;BME280;6516;35.028;32.372;2022-12-18T01:09:00;100847.31;;;14.43;100.00
12897;BME280;6516;35.028;32.372;2022-12-18T01:11:31;100849.13;;;14.41;100.00
12897;BME280;6516;35.028;32.372;2022-12-18T01:13:58;100848.16;;;14.43;100.00
12897;BME280;6516;35.028;32.372;2022-12-18T01:16:26;100856.84;;;14.50;100.00
12897;BME280;6516;35.028;32.372;2022-12-18T01:18:54;100853.25;;;14.52;100.00
12897;BME280;6516;35.028;32.372;2022-12-18T01:21:23;100843.56;;;14.53;100.00
12897;BME280;6516;35.028;32.372;2022-12-18T01:23:52;100846.06;;;14.57;100.00
12897;BME280;6516;35.028;32.372;2022-12-18T01:26:21;100845.22;;;14.57;100.00
12897;BME280;6516;35.028;32.372;2022-12-18T01:28:50;100843.41;;;14.59;100.00
12897;BME280;6516;35.028;32.372;2022-12-18T01:31:20;100843.34;;;14.62;100.00
12897;BME280;6516;35.028;32.372;2022-12-18T01:33:49;100848.50;;;14.68;100.00
12897;BME280;6516;35.028;32.372;2022-12-18T01:36:18;100848.28;;;14.77;100.00
12897;BME280;6516;35.028;32.372;2022-12-18T01:38:50;100846.47;;;14.79;100.00
12897;BME280;6516;35.028;32.372;2022-12-18T01:41:20;100837.44;;;14.86;100.00
12897;BME280;6516;35.028;32.372;2022-12-18T01:43:52;100846.09;;;14.94;100.00
12897;BME280;6516;35.028;32.372;2022-12-18T01:46:23;100841.69;;;14.94;100.00
12897;BME280;6516;35.028;32.372;2022-12-18T01:48:55;100838.88;;;15.00;100.00
12897;BME280;6516;35.028;32.372;2022-12-18T01:51:25;100837.97;;;15.00;100.00
12897;BME280;6516;35.028;32.372;2022-12-18T01:53:54;100830.78;;;15.05;100.00
12897;BME280;6516;35.028;32.372;2022-12-18T01:56:22;100839.81;;;14.98;100.00
12897;BME280;6516;35.028;32.372;2022-12-18T01:58:54;100839.91;;;14.93;100.00
12897;BME280;6516;35.028;32.372;2022-12-18T02:01:27;100844.44;;;14.90;100.00
12897;BME280;6516;35.028;32.372;2022-12-18T02:04:19;100840.97;;;14.88;100.00
12897;BME280;6516;35.028;32.372;2022-12-18T02:06:51;100835.66;;;14.88;100.00
12897;BME280;6516;35.028;32.372;2022-12-18T02:09:29;100841.97;;;14.82;100.00
12897;BME280;6516;35.028;32.372;2022-12-18T02:12:07;100837.66;;;14.77;100.00
12897;BME280;6516;35.028;32.372;2022-12-18T02:14:45;100854.56;;;14.73;100.00
12897;BME280;6516;35.028;32.372;2022-12-18T02:17:18;100843.94;;;14.73;100.00
12897;BME280;6516;35.028;32.372;2022-12-18T02:20:01;100842.91;;;14.80;100.00
12897;BME280;6516;35.028;32.372;2022-12-18T02:22:39;100849.31;;;14.71;100.00
12897;BME280;6516;35.028;32.372;2022-12-18T02:25:23;100849.34;;;14.70;100.00
12897;BME280;6516;35.028;32.372;2022-12-18T02:28:01;100854.72;;;14.65;100.00
12897;BME280;6516;35.028;32.372;2022-12-18T02:30:34;100853.13;;;14.60;100.00
12897;BME280;6516;35.028;32.372;2022-12-18T02:33:04;100857.56;;;14.58;100.00
12897;BME280;6516;35.028;32.372;2022-12-18T02:35:34;100854.00;;;14.59;100.00
12897;BME280;6516;35.028;32.372;2022-12-18T02:38:04;100854.00;;;14.59;100.00
12897;BME280;6516;35.028;32.372;2022-12-18T02:40:32;100848.66;;;14.60;100.00
12897;BME280;6516;35.028;32.372;2022-12-18T02:43:07;100852.09;;;14.65;100.00
12897;BME280;6516;35.028;32.372;2022-12-18T02:45:36;100853.06;;;14.61;100.00
12897;BME280;6516;35.028;32.372;2022-12-18T02:48:13;100855.78;;;14.60;100.00
12897;BME280;6516;35.028;32.372;2022-12-18T02:50:45;100861.97;;;14.57;100.00
12897;BME280;6516;35.028;32.372;2022-12-18T02:53:24;100854.00;;;14.59;100.00
12897;BME280;6516;35.028;32.372;2022-12-18T02:56:01;100857.41;;;14.64;100.00
12897;BME280;6516;35.028;32.372;2022-12-18T02:58:41;100853.16;;;14.58;100.00
12897;BME280;6516;35.028;32.372;2022-12-18T03:01:16;100863.81;;;14.55;100.00
12897;BME280;6516;35.028;32.372;2022-12-18T03:03:52;100874.38;;;14.57;100.00
12897;BME280;6516;35.028;32.372;2022-12-18T03:06:27;100870.84;;;14.56;100.00
12897;BME280;6516;35.028;32.372;2022-12-18T03:08:59;100881.41;;;14.58;100.00
12897;BME280;6516;35.028;32.372;2022-12-18T03:11:33;100876.13;;;14.56;100.00
12897;BME280;6516;35.028;32.372;2022-12-18T03:14:21;100878.78;;;14.56;100.00
12897;BME280;6516;35.028;32.372;2022-12-18T03:16:54;100877.94;;;14.56;100.00
12897;BME280;6516;35.028;32.372;2022-12-18T03:19:29;100884.22;;;14.52;100.00
12897;BME280;6516;35.028;32.372;2022-12-18T03:22:02;100886.94;;;14.47;100.00
12897;BME280;6516;35.028;32.372;2022-12-18T03:24:31;100886.09;;;14.47;100.00
12897;BME280;6516;35.028;32.372;2022-12-18T03:27:06;100895.63;;;14.54;100.00
12897;BME280;6516;35.028;32.372;2022-12-18T03:29:38;100892.06;;;14.55;100.00
12897;BME280;6516;35.028;32.372;2022-12-18T03:32:12;100890.34;;;14.54;100.00
12897;BME280;6516;35.028;32.372;2022-12-18T03:34:44;100895.78;;;14.48;100.00
12897;BME280;6516;35.028;32.372;2022-12-18T03:37:15;100895.81;;;14.46;100.00
12897;BME280;6516;35.028;32.372;2022-12-18T03:39:43;100891.13;;;14.57;100.00
12897;BME280;6516;35.028;32.372;2022-12-18T03:42:15;100894.69;;;14.56;100.00
12897;BME280;6516;35.028;32.372;2022-12-18T03:44:53;100896.53;;;14.53;100.00
12897;BME280;6516;35.028;32.372;2022-12-18T03:47:27;100892.28;;;14.46;100.00
12897;BME280;6516;35.028;32.372;2022-12-18T03:50:05;100894.03;;;14.47;100.00
12897;BME280;6516;35.028;32.372;2022-12-18T03:52:42;100900.28;;;14.44;100.00
12897;BME280;6516;35.028;32.372;2022-12-18T03:55:15;100905.41;;;14.52;100.00
12897;BME280;6516;35.028;32.372;2022-12-18T03:57:46;100909.84;;;14.50;100.00
12897;BME280;6516;35.028;32.372;2022-12-18T04:00:17;100913.53;;;14.44;100.00
12897;BME280;6516;35.028;32.372;2022-12-18T04:02:50;100917.13;;;14.40;100.00
12897;BME280;6516;35.028;32.372;2022-12-18T04:05:19;100910.03;;;14.41;100.00
12897;BME280;6516;35.028;32.372;2022-12-18T04:07:48;100913.38;;;14.50;100.00
12897;BME280;6516;35.028;32.372;2022-12-18T04:10:17;100910.75;;;14.49;100.00
12897;BME280;6516;35.028;32.372;2022-12-18T04:12:46;100915.25;;;14.45;100.00
12897;BME280;6516;35.028;32.372;2022-12-18T04:15:14;100913.41;;;14.49;100.00
12897;BME280;6516;35.028;32.372;2022-12-18T04:17:47;100909.88;;;14.48;100.00
12897;BME280;6516;35.028;32.372;2022-12-18T04:20:16;100919.47;;;14.54;100.00
12897;BME280;6516;35.028;32.372;2022-12-18T04:22:44;100926.47;;;14.58;100.00
12897;BME280;6516;35.028;32.372;2022-12-18T04:25:13;100921.34;;;14.49;100.00
12897;BME280;6516;35.028;32.372;2022-12-18T04:27:40;100921.56;;;14.40;100.00
12897;BME280;6516;35.028;32.372;2022-12-18T04:30:09;100927.81;;;14.36;100.00
12897;BME280;6516;35.028;32.372;2022-12-18T04:32:39;100926.84;;;14.40;100.00
12897;BME280;6516;35.028;32.372;2022-12-18T04:35:08;100926.88;;;14.38;100.00
12897;BME280;6516;35.028;32.372;2022-12-18T04:37:36;100925.25;;;14.33;100.00
12897;BME280;6516;35.028;32.372;2022-12-18T04:40:05;100934.25;;;14.23;100.00
12897;BME280;6516;35.028;32.372;2022-12-18T04:42:34;100936.03;;;14.24;100.00
12897;BME280;6516;35.028;32.372;2022-12-18T04:45:03;100934.16;;;14.29;100.00
12897;BME280;6516;35.028;32.372;2022-12-18T04:47:31;100945.59;;;14.31;100.00
12897;BME280;6516;35.028;32.372;2022-12-18T04:50:00;100943.72;;;14.34;100.00
12897;BME280;6516;35.028;32.372;2022-12-18T04:52:28;100948.22;;;14.31;100.00
12897;BME280;6516;35.028;32.372;2022-12-18T04:54:56;100951.88;;;14.25;100.00
12897;BME280;6516;35.028;32.372;2022-12-18T04:57:23;100950.91;;;14.29;100.00
12897;BME280;6516;35.028;32.372;2022-12-18T04:59:51;100946.63;;;14.24;100.00
12897;BME280;6516;35.028;32.372;2022-12-18T05:02:19;100948.38;;;14.25;100.00
12897;BME280;6516;35.028;32.372;2022-12-18T05:04:47;100946.69;;;14.21;100.00
12897;BME280;6516;35.028;32.372;2022-12-18T05:07:16;100949.16;;;14.28;100.00
12897;BME280;6516;35.028;32.372;2022-12-18T05:09:44;100945.59;;;14.31;100.00
12897;BME280;6516;35.028;32.372;2022-12-18T05:12:12;100948.19;;;14.34;100.00
12897;BME280;6516;35.028;32.372;2022-12-18T05:14:39;100948.00;;;14.43;100.00
12897;BME280;6516;35.028;32.372;2022-12-18T05:17:07;100957.53;;;14.50;100.00
12897;BME280;6516;35.028;32.372;2022-12-18T05:19:35;100952.22;;;14.51;100.00
12897;BME280;6516;35.028;32.372;2022-12-18T05:22:03;100948.63;;;14.54;100.00
12897;BME280;6516;35.028;32.372;2022-12-18T05:24:32;100948.59;;;14.55;100.00
12897;BME280;6516;35.028;32.372;2022-12-18T05:27:00;100951.22;;;14.57;100.00
12897;BME280;6516;35.028;32.372;2022-12-18T05:29:28;100955.41;;;14.67;100.00
12897;BME280;6516;35.028;32.372;2022-12-18T05:31:55;100956.34;;;14.66;100.00
12897;BME280;6516;35.028;32.372;2022-12-18T05:34:23;100958.03;;;14.68;100.00
12897;BME280;6516;35.028;32.372;2022-12-18T05:36:51;100955.28;;;14.73;100.00
12897;BME280;6516;35.028;32.372;2022-12-18T05:39:18;100963.16;;;14.76;100.00
12897;BME280;6516;35.028;32.372;2022-12-18T05:41:48;100959.56;;;14.78;100.00
12897;BME280;6516;35.028;32.372;2022-12-18T05:44:15;100959.41;;;14.86;100.00
12897;BME280;6516;35.028;32.372;2022-12-18T05:46:43;100964.50;;;14.95;100.00
12897;BME280;6516;35.028;32.372;2022-12-18T05:49:11;100972.19;;;15.07;100.00
12897;BME280;6516;35.028;32.372;2022-12-18T05:51:39;100962.16;;;15.19;100.00
12897;BME280;6516;35.028;32.372;2022-12-18T05:54:06;100966.31;;;15.31;100.00
12897;BME280;6516;35.028;32.372;2022-12-18T05:56:34;100966.06;;;15.43;100.00
12897;BME280;6516;35.028;32.372;2022-12-18T05:59:03;100972.84;;;15.54;100.00
12897;BME280;6516;35.028;32.372;2022-12-18T06:01:31;100963.72;;;15.64;100.00
12897;BME280;6516;35.028;32.372;2022-12-18T06:03:59;100960.75;;;15.78;100.00
12897;BME280;6516;35.028;32.372;2022-12-18T06:06:27;100953.34;;;15.89;100.00
12897;BME280;6516;35.028;32.372;2022-12-18T06:08:56;100967.16;;;16.01;100.00
12897;BME280;6516;35.028;32.372;2022-12-18T06:11:25;100960.63;;;16.14;100.00
12897;BME280;6516;35.028;32.372;2022-12-18T06:13:55;100960.06;;;16.34;100.00
12897;BME280;6516;35.028;32.372;2022-12-18T06:16:25;100963.03;;;16.54;100.00
12897;BME280;6516;35.028;32.372;2022-12-18T06:18:53;100965.97;;;16.75;100.00
12897;BME280;6516;35.028;32.372;2022-12-18T06:21:22;100973.31;;;16.95;100.00
12897;BME280;6516;35.028;32.372;2022-12-18T06:23:50;100974.41;;;17.17;100.00
12897;BME280;6516;35.028;32.372;2022-12-18T06:26:18;100978.13;;;17.39;100.00
12897;BME280;6516;35.028;32.372;2022-12-18T06:28:46;100981.88;;;17.61;100.00
12897;BME280;6516;35.028;32.372;2022-12-18T06:31:14;100976.72;;;17.81;100.00
12897;BME280;6516;35.028;32.372;2022-12-18T06:33:43;100977.91;;;17.98;100.00
12897;BME280;6516;35.028;32.372;2022-12-18T06:36:12;100986.13;;;18.17;100.00
12897;BME280;6516;35.028;32.372;2022-12-18T06:38:41;100972.16;;;18.35;100.00
12897;BME280;6516;35.028;32.372;2022-12-18T06:41:11;100976.63;;;18.59;99.07
12897;BME280;6516;35.028;32.372;2022-12-18T06:43:40;100979.66;;;18.73;92.66
12897;BME280;6516;35.028;32.372;2022-12-18T06:46:08;100985.91;;;18.95;91.88
12897;BME280;6516;35.028;32.372;2022-12-18T06:48:36;100983.44;;;19.12;90.67
12897;BME280;6516;35.028;32.372;2022-12-18T06:51:05;100991.53;;;19.33;90.63
12897;BME280;6516;35.028;32.372;2022-12-18T06:53:33;100988.97;;;19.52;90.34
12897;BME280;6516;35.028;32.372;2022-12-18T06:56:01;100992.66;;;19.69;88.39
12897;BME280;6516;35.028;32.372;2022-12-18T06:58:29;100981.41;;;19.83;85.02
12897;BME280;6516;35.028;32.372;2022-12-18T07:01:00;100990.19;;;20.07;84.78
12897;BME280;6516;35.028;32.372;2022-12-18T07:03:28;100985.66;;;20.29;84.00
12897;BME280;6516;35.028;32.372;2022-12-18T07:05:56;100987.38;;;20.50;81.32
12897;BME280;6516;35.028;32.372;2022-12-18T07:08:26;100986.63;;;20.66;80.09
12897;BME280;6516;35.028;32.372;2022-12-18T07:10:53;100985.56;;;20.70;76.00
12897;BME280;6516;35.028;32.372;2022-12-18T07:13:24;100989.34;;;20.85;77.22
12897;BME280;6516;35.028;32.372;2022-12-18T07:15:52;100989.09;;;20.89;75.45
12897;BME280;6516;35.028;32.372;2022-12-18T07:18:20;100999.22;;;21.03;75.15
12897;BME280;6516;35.028;32.372;2022-12-18T07:20:48;100996.75;;;21.17;74.72
12897;BME280;6516;35.028;32.372;2022-12-18T07:23:16;100992.56;;;21.30;74.34
12897;BME280;6516;35.028;32.372;2022-12-18T07:25:45;100992.63;;;21.47;74.53
12897;BME280;6516;35.028;32.372;2022-12-18T07:28:13;100995.69;;;21.56;74.72
12897;BME280;6516;35.028;32.372;2022-12-18T07:30:41;100993.38;;;21.67;73.15
12897;BME280;6516;35.028;32.372;2022-12-18T07:33:09;100995.69;;;21.75;73.00
12897;BME280;6516;35.028;32.372;2022-12-18T07:35:36;100999.09;;;21.78;72.74
12897;BME280;6516;35.028;32.372;2022-12-18T07:38:04;100990.91;;;21.81;71.21
12897;BME280;6516;35.028;32.372;2022-12-18T07:40:32;100992.50;;;21.85;70.67
12897;BME280;6516;35.028;32.372;2022-12-18T07:43:03;100991.47;;;21.88;71.21
12897;BME280;6516;35.028;32.372;2022-12-18T07:45:30;100993.91;;;21.92;69.98
12897;BME280;6516;35.028;32.372;2022-12-18T07:47:58;100983.59;;;22.02;70.82
12897;BME280;6516;35.028;32.372;2022-12-18T07:50:26;100992.56;;;22.01;69.96
12897;BME280;6516;35.028;32.372;2022-12-18T07:52:53;100986.63;;;22.11;69.93
12897;BME280;6516;35.028;32.372;2022-12-18T07:55:21;100989.50;;;22.08;69.24
12897;BME280;6516;35.028;32.372;2022-12-18T07:57:49;100994.47;;;22.16;69.06
12897;BME280;6516;35.028;32.372;2022-12-18T08:00:18;100986.91;;;22.24;68.53
12897;BME280;6516;35.028;32.372;2022-12-18T08:02:46;100981.97;;;22.32;67.25
12897;BME280;6516;35.028;32.372;2022-12-18T08:05:14;100976.19;;;22.39;66.96
12897;BME280;6516;35.028;32.372;2022-12-18T08:07:42;100969.25;;;22.52;66.58
12897;BME280;6516;35.028;32.372;2022-12-18T08:10:10;100968.97;;;22.58;65.76
12897;BME280;6516;35.028;32.372;2022-12-18T08:12:38;100970.41;;;22.64;65.14
12897;BME280;6516;35.028;32.372;2022-12-18T08:15:06;100966.53;;;22.69;64.39
12897;BME280;6516;35.028;32.372;2022-12-18T08:17:36;100972.44;;;22.76;65.60
12897;BME280;6516;35.028;32.372;2022-12-18T08:20:05;100958.94;;;22.77;64.44
12897;BME280;6516;35.028;32.372;2022-12-18T08:22:34;100954.72;;;22.89;64.34
12897;BME280;6516;35.028;32.372;2022-12-18T08:25:07;100956.72;;;22.85;64.35
12897;BME280;6516;35.028;32.372;2022-12-18T08:27:35;100956.63;;;23.02;63.42
12897;BME280;6516;35.028;32.372;2022-12-18T08:30:04;100962.88;;;23.03;63.01
12897;BME280;6516;35.028;32.372;2022-12-18T08:32:33;100956.63;;;23.02;61.73
12897;BME280;6516;35.028;32.372;2022-12-18T08:35:04;100950.97;;;23.24;62.86
12897;BME280;6516;35.028;32.372;2022-12-18T08:37:33;100946.50;;;23.38;61.89
12897;BME280;6516;35.028;32.372;2022-12-18T08:40:01;100946.88;;;23.32;61.85
12897;BME280;6516;35.028;32.372;2022-12-18T08:42:29;100942.91;;;23.39;60.90
12897;BME280;6516;35.028;32.372;2022-12-18T08:45:14;100945.31;;;23.44;60.71
12897;BME280;6516;35.028;32.372;2022-12-18T08:47:43;100937.28;;;23.58;60.83
12897;BME280;6516;35.028;32.372;2022-12-18T08:50:12;100936.00;;;23.65;59.98
12897;BME280;6516;35.028;32.372;2022-12-18T08:52:42;100933.81;;;23.71;61.01
12897;BME280;6516;35.028;32.372;2022-12-18T08:55:09;100925.84;;;23.70;61.37
12897;BME280;6516;35.028;32.372;2022-12-18T08:57:37;100927.09;;;23.78;59.99
12897;BME280;6516;35.028;32.372;2022-12-18T09:00:06;100922.38;;;23.82;58.69
12897;BME280;6516;35.028;32.372;2022-12-18T09:02:35;100918.53;;;24.01;60.19
12897;BME280;6516;35.028;32.372;2022-12-18T09:05:03;100920.19;;;24.04;60.76
12897;BME280;6516;35.028;32.372;2022-12-18T09:07:32;100914.25;;;24.13;60.53
12897;BME280;6516;35.028;32.372;2022-12-18T09:10:00;100910.69;;;24.12;58.52
12897;BME280;6516;35.028;32.372;2022-12-18T09:12:28;100902.81;;;24.23;59.06
12897;BME280;6516;35.028;32.372;2022-12-18T09:14:55;100910.91;;;24.23;58.55
12897;BME280;6516;35.028;32.372;2022-12-18T09:17:23;100898.97;;;24.27;58.41
12897;BME280;6516;35.028;32.372;2022-12-18T09:19:51;100894.75;;;24.23;59.88
12897;BME280;6516;35.028;32.372;2022-12-18T09:22:19;100897.53;;;24.22;59.02
12897;BME280;6516;35.028;32.372;2022-12-18T09:24:48;100895.72;;;24.22;59.64
12897;BME280;6516;35.028;32.372;2022-12-18T09:27:16;100889.28;;;24.25;59.68
12897;BME280;6516;35.028;32.372;2022-12-18T09:29:44;100880.13;;;24.13;59.64
12897;BME280;6516;35.028;32.372;2022-12-18T09:32:12;100878.59;;;24.09;59.70
12897;BME280;6516;35.028;32.372;2022-12-18T09:34:40;100880.22;;;24.12;60.01
12897;BME280;6516;35.028;32.372;2022-12-18T09:37:07;100874.94;;;24.10;59.67
12897;BME280;6516;35.028;32.372;2022-12-18T09:39:35;100871.50;;;24.22;60.31
12897;BME280;6516;35.028;32.372;2022-12-18T09:42:05;100866.09;;;24.22;59.04
12897;BME280;6516;35.028;32.372;2022-12-18T09:44:39;100868.97;;;24.33;58.53
12897;BME280;6516;35.028;32.372;2022-12-18T09:47:14;100868.13;;;24.47;58.51
12897;BME280;6516;35.028;32.372;2022-12-18T09:49:47;100857.63;;;24.56;59.07
12897;BME280;6516;35.028;32.372;2022-12-18T09:52:20;100862.44;;;24.65;58.96
12897;BME280;6516;35.028;32.372;2022-12-18T09:54:53;100858.00;;;24.78;58.42
12897;BME280;6516;35.028;32.372;2022-12-18T09:57:25;100855.63;;;24.74;57.55
12897;BME280;6516;35.028;32.372;2022-12-18T09:59:55;100846.09;;;24.68;57.62
12897;BME280;6516;35.028;32.372;2022-12-18T10:02:26;100844.56;;;24.64;57.73
12897;BME280;6516;35.028;32.372;2022-12-18T10:05:04;100845.41;;;24.79;58.85
12897;BME280;6516;35.028;32.372;2022-12-18T10:07:43;100838.16;;;24.79;58.50
12897;BME280;6516;35.028;32.372;2022-12-18T10:10:29;100832.03;;;24.77;58.47
12897;BME280;6516;35.028;32.372;2022-12-18T10:13:09;100836.34;;;24.80;58.62
12897;BME280;6516;35.028;32.372;2022-12-18T10:15:51;100832.75;;;24.93;58.74
12897;BME280;6516;35.028;32.372;2022-12-18T10:18:33;100830.41;;;25.01;57.90
12897;BME280;6516;35.028;32.372;2022-12-18T10:21:11;100821.13;;;24.93;57.77
12897;BME280;6516;35.028;32.372;2022-12-18T10:23:47;100826.00;;;25.00;57.72
12897;BME280;6516;35.028;32.372;2022-12-18T10:26:20;100818.09;;;24.97;57.26
12897;BME280;6516;35.028;32.372;2022-12-18T10:28:49;100817.34;;;24.95;57.61
12897;BME280;6516;35.028;32.372;2022-12-18T10:31:20;100809.28;;;24.95;57.23
12897;BME280;6516;35.028;32.372;2022-12-18T10:33:49;100818.88;;;24.99;57.38
12897;BME280;6516;35.028;32.372;2022-12-18T10:36:17;100818.78;;;25.01;57.38
12897;BME280;6516;35.028;32.372;2022-12-18T10:38:45;100806.69;;;24.94;57.56
12897;BME280;6516;35.028;32.372;2022-12-18T10:41:24;100809.47;;;24.92;57.74
12897;BME280;6516;35.028;32.372;2022-12-18T10:44:15;100809.47;;;24.92;57.83
12897;BME280;6516;35.028;32.372;2022-12-18T10:46:46;100803.91;;;25.08;56.74
12897;BME280;6516;35.028;32.372;2022-12-18T10:49:22;100804.84;;;24.94;57.52
12897;BME280;6516;35.028;32.372;2022-12-18T10:51:51;100801.28;;;24.94;57.90
12897;BME280;6516;35.028;32.372;2022-12-18T10:54:33;100803.53;;;24.87;57.53
12897;BME280;6516;35.028;32.372;2022-12-18T10:57:14;100808.94;;;24.73;57.07
12897;BME280;6516;35.028;32.372;2022-12-18T10:59:53;100801.25;;;24.81;57.98
12897;BME280;6516;35.028;32.372;2022-12-18T11:02:33;100802.50;;;24.76;58.07
12897;BME280;6516;35.028;32.372;2022-12-18T11:05:03;100799.34;;;24.69;59.67
12897;BME280;6516;35.028;32.372;2022-12-18T11:07:51;100806.44;;;24.56;60.05
12897;BME280;6516;35.028;32.372;2022-12-18T11:10:20;100797.06;;;24.63;60.50
12897;BME280;6516;35.028;32.372;2022-12-18T11:12:50;100796.50;;;24.44;60.47
12897;BME280;6516;35.028;32.372;2022-12-18T11:15:22;100793.22;;;24.39;60.39
12897;BME280;6516;35.028;32.372;2022-12-18T11:17:53;100785.94;;;24.27;61.26
12897;BME280;6516;35.028;32.372;2022-12-18T11:20:29;100792.47;;;24.23;61.04
12897;BME280;6516;35.028;32.372;2022-12-18T11:23:00;100792.38;;;24.25;62.10
12897;BME280;6516;35.028;32.372;2022-12-18T11:25:30;100794.09;;;24.26;61.79
12897;BME280;6516;35.028;32.372;2022-12-18T11:28:00;100797.44;;;24.29;60.76
12897;BME280;6516;35.028;32.372;2022-12-18T11:30:32;100793.44;;;24.22;60.15
12897;BME280;6516;35.028;32.372;2022-12-18T11:33:04;100787.16;;;24.22;61.08
12897;BME280;6516;35.028;32.372;2022-12-18T11:35:40;100788.41;;;24.16;61.39
12897;BME280;6516;35.028;32.372;2022-12-18T11:38:18;100787.09;;;24.09;61.47
12897;BME280;6516;35.028;32.372;2022-12-18T11:40:56;100789.59;;;24.12;60.67
12897;BME280;6516;35.028;32.372;2022-12-18T11:43:29;100791.59;;;24.09;61.17
12897;BME280;6516;35.028;32.372;2022-12-18T11:46:03;100784.78;;;24.03;61.06
12897;BME280;6516;35.028;32.372;2022-12-18T11:48:36;100786.59;;;24.03;61.58
12897;BME280;6516;35.028;32.372;2022-12-18T11:51:11;100789.22;;;23.90;61.21
12897;BME280;6516;35.028;32.372;2022-12-18T11:53:41;100784.94;;;23.86;61.66
12897;BME280;6516;35.028;32.372;2022-12-18T11:56:25;100789.34;;;23.87;61.54
12897;BME280;6516;35.028;32.372;2022-12-18T11:59:05;100788.03;;;23.80;61.04
12897;BME280;6516;35.028;32.372;2022-12-18T12:01:48;100782.34;;;23.71;60.27
12897;BME280;6516;35.028;32.372;2022-12-18T12:04:40;100781.09;;;23.62;61.12
12897;BME280;6516;35.028;32.372;2022-12-18T12:07:34;100788.16;;;23.49;61.01
12897;BME280;6516;35.028;32.372;2022-12-18T12:10:15;100791.31;;;23.42;61.38
12897;BME280;6516;35.028;32.372;2022-12-18T12:13:02;100798.97;;;23.34;61.61
12897;BME280;6516;35.028;32.372;2022-12-18T12:15:43;100804.50;;;23.15;61.89
12897;BME280;6516;35.028;32.372;2022-12-18T12:18:28;100794.22;;;23.23;62.05
12897;BME280;6516;35.028;32.372;2022-12-18T12:21:03;100796.38;;;23.17;61.17
12897;BME280;6516;35.028;32.372;2022-12-18T12:23:41;100799.34;;;23.12;61.30
12897;BME280;6516;35.028;32.372;2022-12-18T12:26:17;100798.38;;;23.13;61.62
12897;BME280;6516;35.028;32.372;2022-12-18T12:28:57;100793.34;;;23.07;61.11
12897;BME280;6516;35.028;32.372;2022-12-18T12:31:52;100787.00;;;22.94;61.68
12897;BME280;6516;35.028;32.372;2022-12-18T12:34:36;100790.72;;;22.92;61.55
12897;BME280;6516;35.028;32.372;2022-12-18T12:37:20;100791.06;;;22.86;61.70
12897;BME280;6516;35.028;32.372;2022-12-18T12:39:53;100797.63;;;22.80;61.18
12897;BME280;6516;35.028;32.372;2022-12-18T12:42:34;100796.09;;;22.76;60.97
12897;BME280;6516;35.028;32.372;2022-12-18T12:45:33;100797.91;;;22.60;60.55
12897;BME280;6516;35.028;32.372;2022-12-18T12:48:06;100802.94;;;22.51;61.28
12897;BME280;6516;35.028;32.372;2022-12-18T12:50:40;100804.44;;;22.39;61.57
12897;BME280;6516;35.028;32.372;2022-12-18T12:53:17;100809.03;;;22.37;62.31
12897;BME280;6516;35.028;32.372;2022-12-18T12:55:49;100801.88;;;22.38;62.64
12897;BME280;6516;35.028;32.372;2022-12-18T12:58:19;100797.94;;;22.28;63.51
12897;BME280;6516;35.028;32.372;2022-12-18T13:00:56;100802.38;;;22.29;63.96
12897;BME280;6516;35.028;32.372;2022-12-18T13:03:38;100796.22;;;22.27;64.51
12897;BME280;6516;35.028;32.372;2022-12-18T13:06:17;100804.59;;;22.21;64.68
12897;BME280;6516;35.028;32.372;2022-12-18T13:08:55;100801.06;;;22.20;65.20